Time;durP1;ratioP1;P1;durP2;ratioP2;P2;SDS_P1;SDS_P2;PMS_P1;PMS_P2;Temp;Humidity;BMP_temperature;BMP_pressure;BME280_temperature;BME280_humidity;BME280_pressure;Samples;Min_cycle;Max_cycle;Signal;HPM_P1;HPM_P2
2023/06/27 00:03:36;;;;;;;;;12.25;12.25;;;;;;;;6489140;39;8869;-52
2023/06/27 00:09:40;;;;;;;;;12.50;10.75;;;;;;;;6489640;46;8884;-49
2023/06/27 00:15:44;;;;;;;;;9.00;8.00;;;;;;;;6489311;31;8908;-49
2023/06/27 00:21:47;;;;;;;;;8.25;8.25;;;;;;;;6490127;31;9007;-50
2023/06/27 00:27:53;;;;;;;;;11.50;10.50;;;;;;;;6489905;39;8833;-52
2023/06/27 00:33:55;;;;;;;;;15.00;12.00;;;;;;;;6489677;31;8879;-53
2023/06/27 00:39:58;;;;;;;;;12.00;10.50;;;;;;;;6488932;39;9029;-49
2023/06/27 00:46:06;;;;;;;;;11.00;10.33;;;;;;;;6488482;39;8970;-52
2023/06/27 00:52:08;;;;;;;;;13.25;12.50;;;;;;;;6488659;47;9059;-54
2023/06/27 00:58:11;;;;;;;;;13.75;11.75;;;;;;;;6488102;39;9512;-52
2023/06/27 01:04:14;;;;;;;;;11.75;10.50;;;;;;;;6487643;39;8985;-52
2023/06/27 01:10:28;;;;;;;;;13.67;13.67;;;;;;;;6488140;39;8871;-50
2023/06/27 01:16:35;;;;;;;;;12.75;12.50;;;;;;;;6487776;39;9031;-46
2023/06/27 01:22:44;;;;;;;;;13.00;13.00;;;;;;;;6486729;39;8875;-47
2023/06/27 01:28:47;;;;;;;;;14.25;14.25;;;;;;;;6487745;39;9485;-50
2023/06/27 01:35:02;;;;;;;;;15.50;14.50;;;;;;;;6487173;39;8915;-48
2023/06/27 01:41:12;;;;;;;;;14.33;12.67;;;;;;;;6490172;39;8935;-51
2023/06/27 01:47:16;;;;;;;;;15.75;14.00;;;;;;;;6489672;39;10551;-50
2023/06/27 01:53:18;;;;;;;;;11.67;11.67;;;;;;;;6489793;46;8945;-48
2023/06/27 01:59:20;;;;;;;;;11.75;11.00;;;;;;;;6490498;39;9017;-48
2023/06/27 02:05:23;;;;;;;;;14.00;14.00;;;;;;;;6488889;39;8880;-48
2023/06/27 02:11:25;;;;;;;;;16.00;14.33;;;;;;;;6489137;46;9063;-47
2023/06/27 02:17:32;;;;;;;;;11.50;11.00;;;;;;;;6489170;46;8940;-49
2023/06/27 02:23:35;;;;;;;;;12.00;11.00;;;;;;;;6489448;46;8855;-50
2023/06/27 02:29:37;;;;;;;;;11.00;11.00;;;;;;;;6490101;39;8912;-50
2023/06/27 02:35:39;;;;;;;;;13.00;13.00;;;;;;;;6489989;46;8915;-48
2023/06/27 02:41:43;;;;;;;;;12.00;12.00;;;;;;;;6490505;31;8961;-50
2023/06/27 02:47:46;;;;;;;;;12.67;12.67;;;;;;;;6486957;46;8950;-49
2023/06/27 02:53:48;;;;;;;;;16.00;13.67;;;;;;;;6489113;31;8920;-49
2023/06/27 02:59:53;;;;;;;;;13.75;13.75;;;;;;;;6488589;39;9042;-48
2023/06/27 03:05:55;;;;;;;;;14.00;13.00;;;;;;;;6488957;39;8911;-50
2023/06/27 03:11:58;;;;;;;;;12.33;11.67;;;;;;;;6488836;39;8987;-50
2023/06/27 03:18:02;;;;;;;;;14.25;13.25;;;;;;;;6488114;46;8952;-51
2023/06/27 03:24:06;;;;;;;;;12.75;12.75;;;;;;;;6488488;46;8923;-50
2023/06/27 03:30:10;;;;;;;;;12.00;12.00;;;;;;;;6308650;39;10000726;-49
2023/06/27 03:36:13;;;;;;;;;16.00;13.75;;;;;;;;6488005;46;8864;-48
2023/06/27 03:42:16;;;;;;;;;15.75;14.50;;;;;;;;6487725;46;8951;-52
2023/06/27 03:48:19;;;;;;;;;18.25;14.25;;;;;;;;6489375;31;8863;-49
2023/06/27 03:54:21;;;;;;;;;17.33;13.67;;;;;;;;6487805;39;8893;-52
2023/06/27 04:07:09;;;;;;;;;11.75;11.00;;;;;;;;6482318;46;9087;-56
2023/06/27 16:14:16;;;;;;;;;11.50;10.50;;;;;;;;6387979;39;52140;-58
2023/06/27 16:20:20;;;;;;;;;9.50;9.50;;;;;;;;6490314;31;9587;-58
2023/06/27 16:26:23;;;;;;;;;12.50;10.50;;;;;;;;6489675;39;9051;-56
2023/06/27 16:32:25;;;;;;;;;11.75;11.25;;;;;;;;6490084;39;9031;-58
2023/06/27 16:38:28;;;;;;;;;6.75;6.75;;;;;;;;6490010;46;8868;-58
2023/06/27 16:44:30;;;;;;;;;6.50;6.25;;;;;;;;6491422;39;8816;-58
2023/06/27 16:50:39;;;;;;;;;10.25;9.00;;;;;;;;6490521;39;9574;-57
2023/06/27 16:56:42;;;;;;;;;9.50;8.50;;;;;;;;6492236;39;9602;-57
2023/06/27 17:02:47;;;;;;;;;10.25;10.25;;;;;;;;6491781;39;8913;-56
2023/06/27 17:08:50;;;;;;;;;13.50;13.00;;;;;;;;6490338;46;8877;-57
2023/06/27 17:14:52;;;;;;;;;10.25;9.75;;;;;;;;6491996;39;9027;-57
2023/06/27 17:20:55;;;;;;;;;11.75;11.75;;;;;;;;6489759;31;8951;-59
2023/06/27 17:26:57;;;;;;;;;9.50;7.75;;;;;;;;6490575;39;8962;-59
2023/06/27 17:33:01;;;;;;;;;13.25;12.00;;;;;;;;6490674;39;8886;-57
2023/06/27 17:39:03;;;;;;;;;13.50;12.75;;;;;;;;6490085;39;8876;-57
2023/06/27 17:45:06;;;;;;;;;8.50;7.00;;;;;;;;6490232;31;8907;-58
2023/06/27 17:51:08;;;;;;;;;10.75;10.75;;;;;;;;6488513;39;8919;-59
2023/06/27 17:57:10;;;;;;;;;16.50;15.50;;;;;;;;6489733;46;8951;-58
2023/06/27 18:03:13;;;;;;;;;7.50;7.50;;;;;;;;6490397;31;8986;-59
2023/06/27 18:09:16;;;;;;;;;14.00;14.00;;;;;;;;6488872;39;8963;-58
2023/06/27 18:15:21;;;;;;;;;12.75;12.50;;;;;;;;6488884;39;8934;-57
2023/06/27 18:21:24;;;;;;;;;13.75;12.75;;;;;;;;6489732;39;8917;-57
2023/06/27 18:27:26;;;;;;;;;14.25;13.00;;;;;;;;6488303;47;8921;-58
2023/06/27 18:33:29;;;;;;;;;13.75;12.50;;;;;;;;6488620;39;8939;-56
2023/06/27 18:39:31;;;;;;;;;17.50;14.75;;;;;;;;8203871;36;8929;-58
2023/06/27 18:45:34;;;;;;;;;19.75;16.25;;;;;;;;6488341;39;8943;-57
2023/06/27 18:51:37;;;;;;;;;13.75;12.50;;;;;;;;6486646;47;8938;-57
2023/06/27 18:57:41;;;;;;;;;15.50;13.00;;;;;;;;6486641;39;8877;-58
2023/06/27 19:03:44;;;;;;;;;14.75;13.25;;;;;;;;6487089;47;8912;-58
2023/06/27 19:09:46;;;;;;;;;15.50;14.50;;;;;;;;6487301;47;9092;-60
2023/06/27 19:15:49;;;;;;;;;13.75;12.75;;;;;;;;6490485;39;8871;-59
2023/06/27 19:21:52;;;;;;;;;13.00;13.00;;;;;;;;6489677;46;8878;-56
2023/06/27 19:27:55;;;;;;;;;13.25;12.00;;;;;;;;6489731;39;9483;-58
2023/06/27 19:33:57;;;;;;;;;14.25;14.25;;;;;;;;6490284;39;9495;-58
2023/06/27 19:40:01;;;;;;;;;19.00;17.25;;;;;;;;6489042;46;8868;-57
2023/06/27 19:46:03;;;;;;;;;17.50;17.50;;;;;;;;6489169;46;8884;-57
2023/06/27 19:52:05;;;;;;;;;17.00;17.00;;;;;;;;6489353;46;8974;-57
2023/06/27 19:58:08;;;;;;;;;16.75;16.00;;;;;;;;6489997;39;9587;-57
2023/06/27 20:04:10;;;;;;;;;17.75;16.50;;;;;;;;6489308;39;8947;-58
2023/06/27 20:10:17;;;;;;;;;16.75;15.50;;;;;;;;6489502;39;8924;-56
2023/06/27 20:16:20;;;;;;;;;15.25;15.25;;;;;;;;6489718;46;8868;-57
2023/06/27 20:22:23;;;;;;;;;16.50;16.00;;;;;;;;6488510;39;9015;-58
2023/06/27 20:28:25;;;;;;;;;17.25;15.00;;;;;;;;6489188;31;8896;-58
2023/06/27 20:34:29;;;;;;;;;13.50;13.50;;;;;;;;6489285;39;8841;-57
2023/06/27 20:40:32;;;;;;;;;14.50;13.75;;;;;;;;6488731;46;8880;-59
2023/06/27 20:46:37;;;;;;;;;15.00;15.00;;;;;;;;6489909;39;8916;-58
2023/06/27 20:52:41;;;;;;;;;18.25;15.50;;;;;;;;6487714;46;8856;-57
2023/06/27 20:58:46;;;;;;;;;16.00;14.50;;;;;;;;8206808;36;9020;-58
2023/06/27 21:04:48;;;;;;;;;14.25;13.50;;;;;;;;6488245;46;9019;-56
2023/06/27 21:10:51;;;;;;;;;21.75;16.75;;;;;;;;6489253;39;8955;-57
2023/06/27 21:16:53;;;;;;;;;22.00;19.50;;;;;;;;6488453;46;8853;-59
2023/06/27 21:22:57;;;;;;;;;19.00;17.75;;;;;;;;6488609;39;8856;-57
2023/06/27 21:29:00;;;;;;;;;18.00;16.25;;;;;;;;6488357;46;9011;-58
2023/06/27 21:35:03;;;;;;;;;19.50;19.50;;;;;;;;6487724;31;8836;-58
2023/06/27 21:41:06;;;;;;;;;19.75;19.00;;;;;;;;6488513;46;8869;-57
2023/06/27 21:47:08;;;;;;;;;20.75;19.00;;;;;;;;6489525;39;8950;-58
2023/06/27 21:53:12;;;;;;;;;18.75;18.75;;;;;;;;6487062;39;8897;-58
2023/06/27 21:59:14;;;;;;;;;23.25;21.50;;;;;;;;6488703;46;8888;-56
2023/06/27 22:05:22;;;;;;;;;21.00;17.50;;;;;;;;6306772;39;10000946;-59
2023/06/27 22:11:24;;;;;;;;;22.25;20.50;;;;;;;;6487452;39;8949;-58
2023/06/27 22:17:27;;;;;;;;;16.25;16.25;;;;;;;;6489294;39;8879;-56
2023/06/27 22:23:29;;;;;;;;;21.25;17.75;;;;;;;;6488291;39;9542;-57
2023/06/27 22:29:33;;;;;;;;;24.25;19.50;;;;;;;;6488311;39;8915;-58
2023/06/27 22:35:39;;;;;;;;;25.00;18.00;;;;;;;;6487617;39;8869;-58
2023/06/27 22:41:41;;;;;;;;;17.50;16.25;;;;;;;;6487284;31;8856;-57
2023/06/27 22:47:44;;;;;;;;;17.75;17.00;;;;;;;;6490207;31;9047;-57
2023/06/27 22:53:46;;;;;;;;;17.00;17.00;;;;;;;;6507181;36;8888;-58
2023/06/27 22:59:49;;;;;;;;;22.00;20.50;;;;;;;;6489953;39;9093;-58
2023/06/27 23:05:51;;;;;;;;;15.00;14.75;;;;;;;;6489875;39;8887;-58
2023/06/27 23:11:53;;;;;;;;;18.25;18.00;;;;;;;;6489628;39;9065;-58
2023/06/27 23:17:59;;;;;;;;;22.00;19.25;;;;;;;;6489968;39;8875;-58
2023/06/27 23:24:02;;;;;;;;;19.25;19.25;;;;;;;;6488745;39;8901;-57
2023/06/27 23:30:08;;;;;;;;;19.50;18.00;;;;;;;;6489456;46;8945;-57
2023/06/27 23:36:12;;;;;;;;;25.25;21.50;;;;;;;;6489818;39;8893;-58
2023/06/27 23:42:14;;;;;;;;;19.50;18.25;;;;;;;;6489064;39;9526;-58
2023/06/27 23:48:16;;;;;;;;;26.00;24.00;;;;;;;;6489929;39;8900;-58
2023/06/27 23:54:18;;;;;;;;;23.75;19.50;;;;;;;;6489862;39;8932;-57
